Key Field
KMEI : now visible

Airfield :











YOU CAN JOIN US ON...

 
LOGIN :

Register | Disclaimer

   EN    FR    IT 

 









Legend :    VFR   Marginal VFR   IFR   Intensive IFR   Very Intensive IFR
Visi :
Ceiling :
>= 8 km
>= 3000ft
5 to 8 km
1000 to 3000 ft
1500m to 5 km
500 to 1000 ft
800 to 1500m
200 to 500 ft
< 800m
< 200 ft
Symbols :   Thunderstorms  Fog  Heavy snow  Heavy precipitations  Wind > 20 kt






- Airport Elevation : 297 ft
- IATA code : MEI


KMEI - Key Field

CURRENT METAR :
  • 230958Z AUTO 34005KT 7SM RA FEW060 SCT090 BKN110 23/21 A2997 RMK AO2 RAB41 SLP145 P0002 T02280206

EXPIRED METARs :
  • 230858Z AUTO 00000KT 10SM BKN060 23/20 A3001 RMK AO2 SLP158 T02330200 55008
  • 230758Z AUTO 28004KT 10SM CLR 22/20 A3000 RMK AO2 SLP155 T02220200
  • 230658Z AUTO 14004KT 10SM CLR 23/19 A3000 RMK AO2 SLP156 T02330194
  • 230558Z AUTO 24003KT 10SM CLR 24/19 A3003 RMK AO2 SLP166 T02390194 10283 20239 403110189 51024

TAF KMEI
Valid from the 23 at 06:00 until the 24 at 06:00 UTC


230535Z 2306/2406 20007KT P6SM BKN250
KZME FIR / North America



MET'MAP, your aeronautical weather chart ! - Copyright ORBIFLY December 2007 - Disclaimer

ORBIFLY MET'MAP TEAM :

Programming & Development : Alexandra Zaïnal
Original concept : Baudouin d'Aumeries
Technical & hardware support : Manuel Goepfert
Assistance : Marc-Olivier Méhu




SOURCES & CREDITS :

   NOAA       Earth
Advisory